sensor_id;sensor_type;location;lat;lon;timestamp;pressure;altitude;pressure_sealevel;temperature;humidity
73063;BME280;61230;46.328;19.972;2024-01-07T00:01:50;98950.91;;;7.76;100.00
73063;BME280;61230;46.328;19.972;2024-01-07T00:04:18;98950.09;;;7.75;100.00
73063;BME280;61230;46.328;19.972;2024-01-07T00:06:46;98950.09;;;7.75;100.00
73063;BME280;61230;46.328;19.972;2024-01-07T00:09:15;98951.09;;;7.74;100.00
73063;BME280;61230;46.328;19.972;2024-01-07T00:11:43;98951.53;;;7.70;100.00
73063;BME280;61230;46.328;19.972;2024-01-07T00:14:10;98907.28;;;7.42;100.00
73063;BME280;61230;46.328;19.972;2024-01-07T00:16:40;98947.75;;;7.64;100.00
73063;BME280;61230;46.328;19.972;2024-01-07T00:19:08;98946.28;;;7.62;100.00
73063;BME280;61230;46.328;19.972;2024-01-07T00:21:35;98901.03;;;7.35;100.00
73063;BME280;61230;46.328;19.972;2024-01-07T00:24:03;98947.59;;;7.58;100.00
73063;BME280;61230;46.328;19.972;2024-01-07T00:26:31;98951.19;;;7.57;100.00
73063;BME280;61230;46.328;19.972;2024-01-07T00:28:58;98944.97;;;7.58;100.00
73063;BME280;61230;46.328;19.972;2024-01-07T00:31:26;98943.31;;;7.57;100.00
73063;BME280;61230;46.328;19.972;2024-01-07T00:33:54;98940.06;;;7.55;100.00
73063;BME280;61230;46.328;19.972;2024-01-07T00:36:22;98945.12;;;7.56;100.00
73063;BME280;61230;46.328;19.972;2024-01-07T00:38:49;98941.16;;;7.52;100.00
73063;BME280;61230;46.328;19.972;2024-01-07T00:41:17;98946.25;;;7.53;100.00
73063;BME280;61230;46.328;19.972;2024-01-07T00:43:45;98942.81;;;7.53;100.00
73063;BME280;61230;46.328;19.972;2024-01-07T00:46:13;98944.59;;;7.52;100.00
73063;BME280;61230;46.328;19.972;2024-01-07T00:48:40;98943.63;;;7.53;100.00
73063;BME280;61230;46.328;19.972;2024-01-07T00:51:08;98938.41;;;7.53;100.00
73063;BME280;61230;46.328;19.972;2024-01-07T00:53:36;98904.13;;;7.31;100.00
73063;BME280;61230;46.328;19.972;2024-01-07T00:56:05;98940.06;;;7.55;100.00
73063;BME280;61230;46.328;19.972;2024-01-07T00:58:33;98939.06;;;7.56;100.00
73063;BME280;61230;46.328;19.972;2024-01-07T01:01:01;98903.66;;;7.35;100.00
73063;BME280;61230;46.328;19.972;2024-01-07T01:03:29;98935.50;;;7.65;100.00
73063;BME280;61230;46.328;19.972;2024-01-07T01:05:57;98896.81;;;7.42;100.00
73063;BME280;61230;46.328;19.972;2024-01-07T01:08:25;98929.62;;;7.71;100.00
73063;BME280;61230;46.328;19.972;2024-01-07T01:10:53;98925.06;;;7.73;100.00
73063;BME280;61230;46.328;19.972;2024-01-07T01:13:21;98884.06;;;7.47;100.00
73063;BME280;61230;46.328;19.972;2024-01-07T01:15:48;98929.13;;;7.75;100.00
73063;BME280;61230;46.328;19.972;2024-01-07T01:18:16;98931.63;;;7.77;100.00
73063;BME280;61230;46.328;19.972;2024-01-07T01:20:44;98930.16;;;7.82;100.00
73063;BME280;61230;46.328;19.972;2024-01-07T01:23:12;98943.75;;;7.86;100.00
73063;BME280;61230;46.328;19.972;2024-01-07T01:25:40;98932.28;;;7.87;100.00
73063;BME280;61230;46.328;19.972;2024-01-07T01:28:07;98908.38;;;7.74;100.00
73063;BME280;61230;46.328;19.972;2024-01-07T01:30:35;98933.63;;;7.91;100.00
73063;BME280;61230;46.328;19.972;2024-01-07T01:33:03;98934.28;;;7.93;100.00
73063;BME280;61230;46.328;19.972;2024-01-07T01:35:31;98931.34;;;7.96;100.00
73063;BME280;61230;46.328;19.972;2024-01-07T01:37:58;98918.09;;;7.97;100.00
73063;BME280;61230;46.328;19.972;2024-01-07T01:40:26;98925.78;;;7.99;100.00
73063;BME280;61230;46.328;19.972;2024-01-07T01:42:54;98870.25;;;7.71;100.00
73063;BME280;61230;46.328;19.972;2024-01-07T01:45:21;98924.94;;;7.98;100.00
73063;BME280;61230;46.328;19.972;2024-01-07T01:47:49;98923.16;;;7.99;100.00
73063;BME280;61230;46.328;19.972;2024-01-07T01:50:17;98918.87;;;7.98;100.00
73063;BME280;61230;46.328;19.972;2024-01-07T01:52:45;98924.94;;;7.98;100.00
73063;BME280;61230;46.328;19.972;2024-01-07T01:55:14;98911.53;;;7.93;100.00
73063;BME280;61230;46.328;19.972;2024-01-07T01:57:43;98912.69;;;7.99;100.00
73063;BME280;61230;46.328;19.972;2024-01-07T02:00:12;98915.12;;;8.00;100.00
73063;BME280;61230;46.328;19.972;2024-01-07T02:02:40;98912.50;;;8.00;100.00
73063;BME280;61230;46.328;19.972;2024-01-07T02:05:08;98918.75;;;7.99;100.00
73063;BME280;61230;46.328;19.972;2024-01-07T02:07:36;98886.28;;;7.84;100.00
73063;BME280;61230;46.328;19.972;2024-01-07T02:10:04;98908.41;;;7.98;100.00
73063;BME280;61230;46.328;19.972;2024-01-07T02:12:32;98912.84;;;7.97;100.00
73063;BME280;61230;46.328;19.972;2024-01-07T02:14:59;98908.72;;;7.95;100.00
73063;BME280;61230;46.328;19.972;2024-01-07T02:17:27;98894.03;;;7.94;100.00
73063;BME280;61230;46.328;19.972;2024-01-07T02:19:55;98891.41;;;7.94;100.00
73063;BME280;61230;46.328;19.972;2024-01-07T02:22:23;98852.06;;;7.70;100.00
73063;BME280;61230;46.328;19.972;2024-01-07T02:24:50;98887.31;;;7.91;100.00
73063;BME280;61230;46.328;19.972;2024-01-07T02:27:18;98883.53;;;7.94;100.00
73063;BME280;61230;46.328;19.972;2024-01-07T02:29:46;98878.63;;;7.91;100.00
73063;BME280;61230;46.328;19.972;2024-01-07T02:32:13;98869.12;;;7.90;100.00
73063;BME280;61230;46.328;19.972;2024-01-07T02:34:41;98869.12;;;7.90;100.00
73063;BME280;61230;46.328;19.972;2024-01-07T02:37:09;98863.75;;;7.91;100.00
73063;BME280;61230;46.328;19.972;2024-01-07T02:39:37;98864.22;;;7.87;100.00
73063;BME280;61230;46.328;19.972;2024-01-07T02:42:05;98866.00;;;7.86;100.00
73063;BME280;61230;46.328;19.972;2024-01-07T02:44:32;98856.66;;;7.84;100.00
73063;BME280;61230;46.328;19.972;2024-01-07T02:47:00;98860.13;;;7.84;100.00
73063;BME280;61230;46.328;19.972;2024-01-07T02:49:28;98859.28;;;7.84;100.00
73063;BME280;61230;46.328;19.972;2024-01-07T02:51:56;98785.12;;;7.43;100.00
73063;BME280;61230;46.328;19.972;2024-01-07T02:54:24;98849.81;;;7.83;100.00
73063;BME280;61230;46.328;19.972;2024-01-07T02:56:52;98850.97;;;7.80;100.00
73063;BME280;61230;46.328;19.972;2024-01-07T02:59:20;98850.13;;;7.80;100.00
73063;BME280;61230;46.328;19.972;2024-01-07T03:01:47;98853.59;;;7.80;100.00
73063;BME280;61230;46.328;19.972;2024-01-07T03:04:16;98855.53;;;7.78;100.00
73063;BME280;61230;46.328;19.972;2024-01-07T03:06:44;98839.16;;;7.76;100.00
73063;BME280;61230;46.328;19.972;2024-01-07T03:09:12;98843.56;;;7.76;100.00
73063;BME280;61230;46.328;19.972;2024-01-07T03:11:40;98800.34;;;7.47;100.00
73063;BME280;61230;46.328;19.972;2024-01-07T03:14:09;98832.75;;;7.63;100.00
73063;BME280;61230;46.328;19.972;2024-01-07T03:16:37;98850.91;;;7.64;100.00
73063;BME280;61230;46.328;19.972;2024-01-07T03:19:05;98843.88;;;7.65;100.00
73063;BME280;61230;46.328;19.972;2024-01-07T03:21:33;98846.69;;;7.63;100.00
73063;BME280;61230;46.328;19.972;2024-01-07T03:24:01;98845.03;;;7.62;100.00
73063;BME280;61230;46.328;19.972;2024-01-07T03:26:30;98842.72;;;7.59;100.00
73063;BME280;61230;46.328;19.972;2024-01-07T03:29:00;98846.16;;;7.60;100.00
73063;BME280;61230;46.328;19.972;2024-01-07T03:31:29;98804.53;;;7.32;100.00
73063;BME280;61230;46.328;19.972;2024-01-07T03:33:57;98800.31;;;7.31;100.00
73063;BME280;61230;46.328;19.972;2024-01-07T03:36:25;98844.84;;;7.56;100.00
73063;BME280;61230;46.328;19.972;2024-01-07T03:38:53;98799.31;;;7.32;100.00
73063;BME280;61230;46.328;19.972;2024-01-07T03:41:21;98844.69;;;7.57;100.00
73063;BME280;61230;46.328;19.972;2024-01-07T03:43:49;98844.38;;;7.60;100.00
73063;BME280;61230;46.328;19.972;2024-01-07T03:46:17;98838.81;;;7.63;100.00
73063;BME280;61230;46.328;19.972;2024-01-07T03:48:45;98842.22;;;7.64;100.00
73063;BME280;61230;46.328;19.972;2024-01-07T03:51:13;98843.88;;;7.65;100.00
73063;BME280;61230;46.328;19.972;2024-01-07T03:53:41;98840.28;;;7.66;100.00
73063;BME280;61230;46.328;19.972;2024-01-07T03:56:08;98790.50;;;7.41;100.00
73063;BME280;61230;46.328;19.972;2024-01-07T03:58:36;98839.81;;;7.70;100.00
73063;BME280;61230;46.328;19.972;2024-01-07T04:01:04;98829.34;;;7.70;100.00
73063;BME280;61230;46.328;19.972;2024-01-07T04:03:32;98829.81;;;7.66;100.00
73063;BME280;61230;46.328;19.972;2024-01-07T04:06:00;98835.72;;;7.76;100.00
73063;BME280;61230;46.328;19.972;2024-01-07T04:08:28;98836.38;;;7.78;100.00
73063;BME280;61230;46.328;19.972;2024-01-07T04:10:56;98838.66;;;7.81;100.00
73063;BME280;61230;46.328;19.972;2024-01-07T04:13:23;98835.72;;;7.84;100.00
73063;BME280;61230;46.328;19.972;2024-01-07T04:15:51;98831.81;;;7.80;100.00
73063;BME280;61230;46.328;19.972;2024-01-07T04:18:19;98840.63;;;7.87;100.00
73063;BME280;61230;46.328;19.972;2024-01-07T04:20:47;98835.41;;;7.87;100.00
73063;BME280;61230;46.328;19.972;2024-01-07T04:23:14;98794.66;;;7.60;100.00
73063;BME280;61230;46.328;19.972;2024-01-07T04:25:42;98838.34;;;7.84;100.00
73063;BME280;61230;46.328;19.972;2024-01-07T04:28:11;98836.72;;;7.83;100.00
73063;BME280;61230;46.328;19.972;2024-01-07T04:30:39;98792.34;;;7.57;100.00
73063;BME280;61230;46.328;19.972;2024-01-07T04:33:07;98823.28;;;7.78;100.00
73063;BME280;61230;46.328;19.972;2024-01-07T04:35:34;98832.28;;;7.75;100.00
73063;BME280;61230;46.328;19.972;2024-01-07T04:38:03;98781.37;;;7.45;100.00
73063;BME280;61230;46.328;19.972;2024-01-07T04:40:31;98830.31;;;7.69;100.00
73063;BME280;61230;46.328;19.972;2024-01-07T04:42:58;98792.16;;;7.42;100.00
73063;BME280;61230;46.328;19.972;2024-01-07T04:45:26;98825.56;;;7.65;100.00
73063;BME280;61230;46.328;19.972;2024-01-07T04:47:54;98819.81;;;7.61;100.00
73063;BME280;61230;46.328;19.972;2024-01-07T04:50:21;98822.75;;;7.58;100.00
73063;BME280;61230;46.328;19.972;2024-01-07T04:52:50;98822.94;;;7.57;100.00
73063;BME280;61230;46.328;19.972;2024-01-07T04:55:18;98821.28;;;7.56;100.00
73063;BME280;61230;46.328;19.972;2024-01-07T04:57:45;98823.59;;;7.59;100.00
73063;BME280;61230;46.328;19.972;2024-01-07T05:00:13;98826.84;;;7.61;100.00
73063;BME280;61230;46.328;19.972;2024-01-07T05:02:41;98825.69;;;7.55;100.00
73063;BME280;61230;46.328;19.972;2024-01-07T05:05:09;98837.81;;;7.64;100.00
73063;BME280;61230;46.328;19.972;2024-01-07T05:07:37;98826.84;;;7.61;100.00
73063;BME280;61230;46.328;19.972;2024-01-07T05:10:05;98834.56;;;7.62;100.00
73063;BME280;61230;46.328;19.972;2024-01-07T05:12:33;98817.84;;;7.55;100.00
73063;BME280;61230;46.328;19.972;2024-01-07T05:15:01;98828.69;;;7.60;100.00
73063;BME280;61230;46.328;19.972;2024-01-07T05:17:29;98825.22;;;7.60;100.00
73063;BME280;61230;46.328;19.972;2024-01-07T05:19:57;98805.25;;;7.50;100.00
73063;BME280;61230;46.328;19.972;2024-01-07T05:22:25;98826.84;;;7.61;100.00
73063;BME280;61230;46.328;19.972;2024-01-07T05:24:52;98780.53;;;7.37;100.00
73063;BME280;61230;46.328;19.972;2024-01-07T05:27:20;98824.22;;;7.61;100.00
73063;BME280;61230;46.328;19.972;2024-01-07T05:29:48;98828.34;;;7.63;100.00
73063;BME280;61230;46.328;19.972;2024-01-07T05:32:17;98824.91;;;7.63;100.00
73063;BME280;61230;46.328;19.972;2024-01-07T05:34:44;98834.56;;;7.62;100.00
73063;BME280;61230;46.328;19.972;2024-01-07T05:37:12;98843.06;;;7.64;100.00
73063;BME280;61230;46.328;19.972;2024-01-07T05:39:40;98837.81;;;7.64;100.00
73063;BME280;61230;46.328;19.972;2024-01-07T05:42:07;98843.88;;;7.65;100.00
73063;BME280;61230;46.328;19.972;2024-01-07T05:44:35;98842.22;;;7.64;100.00
73063;BME280;61230;46.328;19.972;2024-01-07T05:47:03;98810.78;;;7.39;100.00
73063;BME280;61230;46.328;19.972;2024-01-07T05:49:31;98846.50;;;7.65;100.00
73063;BME280;61230;46.328;19.972;2024-01-07T05:51:59;98855.00;;;7.67;100.00
73063;BME280;61230;46.328;19.972;2024-01-07T05:54:27;98857.63;;;7.67;100.00
73063;BME280;61230;46.328;19.972;2024-01-07T05:56:58;98856.81;;;7.66;100.00
73063;BME280;61230;46.328;19.972;2024-01-07T05:59:26;98853.69;;;7.63;100.00
73063;BME280;61230;46.328;19.972;2024-01-07T06:01:58;98857.94;;;7.64;100.00
73063;BME280;61230;46.328;19.972;2024-01-07T06:04:26;98854.53;;;7.63;100.00
73063;BME280;61230;46.328;19.972;2024-01-07T06:06:54;98857.78;;;7.65;100.00
73063;BME280;61230;46.328;19.972;2024-01-07T06:09:22;98856.00;;;7.66;100.00
73063;BME280;61230;46.328;19.972;2024-01-07T06:11:50;98863.03;;;7.65;100.00
73063;BME280;61230;46.328;19.972;2024-01-07T06:14:18;98820.28;;;7.40;100.00
73063;BME280;61230;46.328;19.972;2024-01-07T06:16:45;98859.44;;;7.66;100.00
73063;BME280;61230;46.328;19.972;2024-01-07T06:19:13;98866.63;;;7.64;100.00
73063;BME280;61230;46.328;19.972;2024-01-07T06:21:42;98867.94;;;7.60;100.00
73063;BME280;61230;46.328;19.972;2024-01-07T06:24:10;98828.09;;;7.32;100.00
73063;BME280;61230;46.328;19.972;2024-01-07T06:26:38;98870.88;;;7.57;100.00
73063;BME280;61230;46.328;19.972;2024-01-07T06:29:06;98875.28;;;7.57;100.00
73063;BME280;61230;46.328;19.972;2024-01-07T06:31:33;98875.41;;;7.55;100.00
73063;BME280;61230;46.328;19.972;2024-01-07T06:34:01;98870.19;;;7.55;100.00
73063;BME280;61230;46.328;19.972;2024-01-07T06:36:29;98873.81;;;7.54;100.00
73063;BME280;61230;46.328;19.972;2024-01-07T06:38:57;98873.81;;;7.54;100.00
73063;BME280;61230;46.328;19.972;2024-01-07T06:41:25;98875.41;;;7.55;100.00
73063;BME280;61230;46.328;19.972;2024-01-07T06:43:52;98880.50;;;7.57;100.00
73063;BME280;61230;46.328;19.972;2024-01-07T06:46:24;98882.00;;;7.59;100.00
73063;BME280;61230;46.328;19.972;2024-01-07T06:48:52;98886.41;;;7.59;100.00
73063;BME280;61230;46.328;19.972;2024-01-07T06:51:19;98879.38;;;7.59;100.00
73063;BME280;61230;46.328;19.972;2024-01-07T06:53:47;98885.56;;;7.58;100.00
73063;BME280;61230;46.328;19.972;2024-01-07T06:56:15;98846.25;;;7.34;100.00
73063;BME280;61230;46.328;19.972;2024-01-07T06:58:43;98860.34;;;7.41;100.00
73063;BME280;61230;46.328;19.972;2024-01-07T07:01:11;98898.19;;;7.63;100.00
73063;BME280;61230;46.328;19.972;2024-01-07T07:03:40;98887.72;;;7.63;100.00
73063;BME280;61230;46.328;19.972;2024-01-07T07:06:08;98880.66;;;7.55;100.00
73063;BME280;61230;46.328;19.972;2024-01-07T07:08:36;98858.03;;;7.38;100.00
73063;BME280;61230;46.328;19.972;2024-01-07T07:11:04;98891.16;;;7.63;100.00
73063;BME280;61230;46.328;19.972;2024-01-07T07:13:31;98902.13;;;7.67;100.00
73063;BME280;61230;46.328;19.972;2024-01-07T07:16:00;98893.47;;;7.66;100.00
73063;BME280;61230;46.328;19.972;2024-01-07T07:18:27;98898.84;;;7.65;100.00
73063;BME280;61230;46.328;19.972;2024-01-07T07:20:55;98900.12;;;7.61;100.00
73063;BME280;61230;46.328;19.972;2024-01-07T07:23:23;98903.25;;;7.64;100.00
73063;BME280;61230;46.328;19.972;2024-01-07T07:25:50;98860.66;;;7.38;100.00
73063;BME280;61230;46.328;19.972;2024-01-07T07:28:18;98901.47;;;7.65;100.00
73063;BME280;61230;46.328;19.972;2024-01-07T07:30:46;98895.09;;;7.67;100.00
73063;BME280;61230;46.328;19.972;2024-01-07T07:33:18;98896.87;;;7.67;100.00
73063;BME280;61230;46.328;19.972;2024-01-07T07:35:46;98897.06;;;7.65;100.00
73063;BME280;61230;46.328;19.972;2024-01-07T07:38:14;98901.47;;;7.65;100.00
73063;BME280;61230;46.328;19.972;2024-01-07T07:40:42;98900.31;;;7.67;100.00
73063;BME280;61230;46.328;19.972;2024-01-07T07:43:09;98909.66;;;7.70;100.00
73063;BME280;61230;46.328;19.972;2024-01-07T07:45:37;98899.50;;;7.67;100.00
73063;BME280;61230;46.328;19.972;2024-01-07T07:48:05;98895.59;;;7.63;100.00
73063;BME280;61230;46.328;19.972;2024-01-07T07:50:33;98894.91;;;7.61;100.00
73063;BME280;61230;46.328;19.972;2024-01-07T07:53:01;98896.34;;;7.55;100.00
73063;BME280;61230;46.328;19.972;2024-01-07T07:55:28;98847.06;;;7.26;100.00
73063;BME280;61230;46.328;19.972;2024-01-07T07:57:56;98896.66;;;7.52;100.00
73063;BME280;61230;46.328;19.972;2024-01-07T08:00:26;98870.09;;;7.23;100.00
73063;BME280;61230;46.328;19.972;2024-01-07T08:02:54;98910.91;;;7.49;100.00
73063;BME280;61230;46.328;19.972;2024-01-07T08:05:21;98922.34;;;7.48;100.00
73063;BME280;61230;46.328;19.972;2024-01-07T08:07:49;98910.41;;;7.46;100.00
73063;BME280;61230;46.328;19.972;2024-01-07T08:10:17;98910.91;;;7.49;100.00
73063;BME280;61230;46.328;19.972;2024-01-07T08:12:44;98913.03;;;7.46;100.00
73063;BME280;61230;46.328;19.972;2024-01-07T08:15:12;98916.28;;;7.40;100.00
73063;BME280;61230;46.328;19.972;2024-01-07T08:17:40;98921.34;;;7.41;100.00
73063;BME280;61230;46.328;19.972;2024-01-07T08:20:08;98917.91;;;7.41;100.00
73063;BME280;61230;46.328;19.972;2024-01-07T08:22:36;98923.12;;;7.41;100.00
73063;BME280;61230;46.328;19.972;2024-01-07T08:25:04;98918.37;;;7.36;100.00
73063;BME280;61230;46.328;19.972;2024-01-07T08:27:32;98935.03;;;7.35;100.00
73063;BME280;61230;46.328;19.972;2024-01-07T08:30:01;98933.41;;;7.34;100.00
73063;BME280;61230;46.328;19.972;2024-01-07T08:32:31;98932.13;;;7.38;100.00
73063;BME280;61230;46.328;19.972;2024-01-07T08:34:58;98932.13;;;7.38;100.00
73063;BME280;61230;46.328;19.972;2024-01-07T08:37:26;98928.84;;;7.36;100.00
73063;BME280;61230;46.328;19.972;2024-01-07T08:39:54;98940.97;;;7.37;100.00
73063;BME280;61230;46.328;19.972;2024-01-07T08:42:22;98944.06;;;7.41;100.00
73063;BME280;61230;46.328;19.972;2024-01-07T08:44:53;98938.34;;;7.37;100.00
73063;BME280;61230;46.328;19.972;2024-01-07T08:47:21;98938.34;;;7.37;100.00
73063;BME280;61230;46.328;19.972;2024-01-07T08:49:48;98948.31;;;7.42;100.00
73063;BME280;61230;46.328;19.972;2024-01-07T08:52:16;98947.81;;;7.38;100.00
73063;BME280;61230;46.328;19.972;2024-01-07T08:54:44;98959.09;;;7.39;100.00
73063;BME280;61230;46.328;19.972;2024-01-07T08:57:12;98946.50;;;7.34;100.00
73063;BME280;61230;46.328;19.972;2024-01-07T08:59:40;98958.75;;;7.34;100.00
73063;BME280;61230;46.328;19.972;2024-01-07T09:02:08;98959.91;;;7.31;100.00
73063;BME280;61230;46.328;19.972;2024-01-07T09:04:35;98953.34;;;7.35;100.00
73063;BME280;61230;46.328;19.972;2024-01-07T09:07:03;98962.84;;;7.36;100.00
73063;BME280;61230;46.328;19.972;2024-01-07T09:09:31;98969.75;;;7.37;100.00
73063;BME280;61230;46.328;19.972;2024-01-07T09:11:58;98968.56;;;7.32;100.00
73063;BME280;61230;46.328;19.972;2024-01-07T09:14:27;98970.72;;;7.36;100.00
73063;BME280;61230;46.328;19.972;2024-01-07T09:16:55;98927.09;;;7.11;100.00
73063;BME280;61230;46.328;19.972;2024-01-07T09:19:23;98971.84;;;7.34;100.00
73063;BME280;61230;46.328;19.972;2024-01-07T09:21:50;98965.47;;;7.36;100.00
73063;BME280;61230;46.328;19.972;2024-01-07T09:24:18;98970.91;;;7.43;100.00
73063;BME280;61230;46.328;19.972;2024-01-07T09:26:46;98986.78;;;7.49;100.00
73063;BME280;61230;46.328;19.972;2024-01-07T09:29:14;98979.59;;;7.43;100.00
73063;BME280;61230;46.328;19.972;2024-01-07T09:31:42;98941.66;;;7.14;100.00
73063;BME280;61230;46.328;19.972;2024-01-07T09:34:09;98982.81;;;7.37;100.00
73063;BME280;61230;46.328;19.972;2024-01-07T09:36:37;98974.84;;;7.47;100.00
73063;BME280;61230;46.328;19.972;2024-01-07T09:39:05;98977.09;;;7.42;100.00
73063;BME280;61230;46.328;19.972;2024-01-07T09:41:33;98986.13;;;7.47;100.00
73063;BME280;61230;46.328;19.972;2024-01-07T09:44:01;98977.28;;;7.40;100.00
73063;BME280;61230;46.328;19.972;2024-01-07T09:46:30;98984.75;;;7.35;100.00
73063;BME280;61230;46.328;19.972;2024-01-07T09:48:59;98975.94;;;7.36;100.00
73063;BME280;61230;46.328;19.972;2024-01-07T09:51:28;98975.47;;;7.41;100.00
73063;BME280;61230;46.328;19.972;2024-01-07T09:53:58;98974.81;;;7.39;100.00
73063;BME280;61230;46.328;19.972;2024-01-07T09:56:40;98978.72;;;7.35;100.00
73063;BME280;61230;46.328;19.972;2024-01-07T09:59:10;98973.81;;;7.32;100.00
73063;BME280;61230;46.328;19.972;2024-01-07T10:01:38;98967.25;;;7.36;100.00
73063;BME280;61230;46.328;19.972;2024-01-07T10:04:06;98969.88;;;7.36;100.00
73063;BME280;61230;46.328;19.972;2024-01-07T10:06:34;98974.47;;;7.34;100.00
73063;BME280;61230;46.328;19.972;2024-01-07T10:09:02;98970.72;;;7.36;100.00
73063;BME280;61230;46.328;19.972;2024-01-07T10:11:30;98973.84;;;7.40;100.00
73063;BME280;61230;46.328;19.972;2024-01-07T10:13:57;98975.47;;;7.41;100.00
73063;BME280;61230;46.328;19.972;2024-01-07T10:16:25;98970.41;;;7.39;100.00
73063;BME280;61230;46.328;19.972;2024-01-07T10:18:53;98917.28;;;7.13;100.00
73063;BME280;61230;46.328;19.972;2024-01-07T10:21:21;98968.25;;;7.35;100.00
73063;BME280;61230;46.328;19.972;2024-01-07T10:23:48;98966.31;;;7.37;100.00
73063;BME280;61230;46.328;19.972;2024-01-07T10:26:16;98972.91;;;7.49;100.00
73063;BME280;61230;46.328;19.972;2024-01-07T10:28:56;98962.38;;;7.41;100.00
73063;BME280;61230;46.328;19.972;2024-01-07T10:31:25;98959.94;;;7.39;100.00
73063;BME280;61230;46.328;19.972;2024-01-07T10:33:53;98962.38;;;7.41;100.00
73063;BME280;61230;46.328;19.972;2024-01-07T10:36:21;98962.69;;;7.38;100.00
73063;BME280;61230;46.328;19.972;2024-01-07T10:38:50;98959.28;;;7.37;100.00
73063;BME280;61230;46.328;19.972;2024-01-07T10:41:19;98913.53;;;7.16;100.00
73063;BME280;61230;46.328;19.972;2024-01-07T10:43:47;98957.28;;;7.31;100.00
73063;BME280;61230;46.328;19.972;2024-01-07T10:46:16;98961.38;;;7.34;100.00
73063;BME280;61230;46.328;19.972;2024-01-07T10:48:55;98954.31;;;7.26;100.00
73063;BME280;61230;46.328;19.972;2024-01-07T10:51:28;98908.22;;;7.00;100.00
73063;BME280;61230;46.328;19.972;2024-01-07T10:53:56;98949.25;;;7.33;100.00
73063;BME280;61230;46.328;19.972;2024-01-07T10:56:25;98944.84;;;7.33;100.00
73063;BME280;61230;46.328;19.972;2024-01-07T10:58:56;98940.38;;;7.18;100.00
73063;BME280;61230;46.328;19.972;2024-01-07T11:01:24;98907.41;;;6.99;100.00
73063;BME280;61230;46.328;19.972;2024-01-07T11:07:32;98944.97;;;7.24;100.00
73063;BME280;61230;46.328;19.972;2024-01-07T11:10:15;98946.59;;;7.25;100.00
73063;BME280;61230;46.328;19.972;2024-01-07T11:13:04;98944.59;;;7.19;100.00
73063;BME280;61230;46.328;19.972;2024-01-07T11:18:22;98944.34;;;7.04;100.00
73063;BME280;61230;46.328;19.972;2024-01-07T11:20:50;98937.81;;;7.00;100.00
73063;BME280;61230;46.328;19.972;2024-01-07T11:23:34;98901.34;;;6.73;100.00
73063;BME280;61230;46.328;19.972;2024-01-07T11:26:07;98937.94;;;6.99;100.00
73063;BME280;61230;46.328;19.972;2024-01-07T11:28:47;98943.78;;;6.92;100.00
73063;BME280;61230;46.328;19.972;2024-01-07T11:31:17;98899.69;;;6.64;100.00
73063;BME280;61230;46.328;19.972;2024-01-07T11:33:47;98899.69;;;6.64;100.00
73063;BME280;61230;46.328;19.972;2024-01-07T11:36:16;98944.72;;;6.83;100.00
73063;BME280;61230;46.328;19.972;2024-01-07T11:38:47;98942.44;;;6.80;100.00
73063;BME280;61230;46.328;19.972;2024-01-07T11:41:21;98942.47;;;6.88;100.00
73063;BME280;61230;46.328;19.972;2024-01-07T11:43:56;98938.81;;;6.81;100.00
73063;BME280;61230;46.328;19.972;2024-01-07T11:46:32;98941.59;;;6.80;100.00
73063;BME280;61230;46.328;19.972;2024-01-07T11:49:01;98939.34;;;6.85;100.00
73063;BME280;61230;46.328;19.972;2024-01-07T11:51:30;98907.59;;;6.54;100.00
73063;BME280;61230;46.328;19.972;2024-01-07T11:54:00;98939.75;;;6.72;100.00
73063;BME280;61230;46.328;19.972;2024-01-07T11:56:29;98955.31;;;6.82;100.00
73063;BME280;61230;46.328;19.972;2024-01-07T11:58:56;98945.22;;;6.87;100.00
73063;BME280;61230;46.328;19.972;2024-01-07T12:01:25;98954.38;;;6.83;100.00
73063;BME280;61230;46.328;19.972;2024-01-07T12:03:56;98961.75;;;6.87;100.00
73063;BME280;61230;46.328;19.972;2024-01-07T12:06:24;98955.94;;;6.76;100.00
73063;BME280;61230;46.328;19.972;2024-01-07T12:08:52;98958.41;;;6.77;100.00
73063;BME280;61230;46.328;19.972;2024-01-07T12:11:20;98959.31;;;6.68;100.00
73063;BME280;61230;46.328;19.972;2024-01-07T12:13:48;98958.66;;;6.66;100.00
73063;BME280;61230;46.328;19.972;2024-01-07T12:16:18;98961.56;;;6.63;100.00
73063;BME280;61230;46.328;19.972;2024-01-07T12:18:46;98961.50;;;6.55;100.00
73063;BME280;61230;46.328;19.972;2024-01-07T12:21:19;98960.81;;;6.53;100.00
73063;BME280;61230;46.328;19.972;2024-01-07T12:23:49;98963.53;;;6.44;100.00
73063;BME280;61230;46.328;19.972;2024-01-07T12:26:20;98979.28;;;6.52;100.00
73063;BME280;61230;46.328;19.972;2024-01-07T12:28:58;98937.47;;;6.16;100.00
73063;BME280;61230;46.328;19.972;2024-01-07T12:31:34;98983.53;;;6.35;100.00
73063;BME280;61230;46.328;19.972;2024-01-07T12:34:02;98976.44;;;6.27;100.00
73063;BME280;61230;46.328;19.972;2024-01-07T12:36:33;98980.69;;;6.28;100.00
73063;BME280;61230;46.328;19.972;2024-01-07T12:39:01;98986.06;;;6.27;100.00
73063;BME280;61230;46.328;19.972;2024-01-07T12:41:29;98937.38;;;5.91;100.00
73063;BME280;61230;46.328;19.972;2024-01-07T12:43:57;98989.69;;;6.16;100.00
73063;BME280;61230;46.328;19.972;2024-01-07T12:46:24;98997.94;;;6.21;100.00
73063;BME280;61230;46.328;19.972;2024-01-07T12:48:53;98988.88;;;6.16;100.00
73063;BME280;61230;46.328;19.972;2024-01-07T12:51:20;99002.63;;;6.18;100.00
73063;BME280;61230;46.328;19.972;2024-01-07T12:53:50;98959.72;;;5.75;100.00
73063;BME280;61230;46.328;19.972;2024-01-07T12:56:18;99004.34;;;6.09;100.00
73063;BME280;61230;46.328;19.972;2024-01-07T12:58:46;99011.63;;;6.06;100.00
73063;BME280;61230;46.328;19.972;2024-01-07T13:01:14;99005.66;;;6.13;100.00
73063;BME280;61230;46.328;19.972;2024-01-07T13:03:42;98966.53;;;5.86;100.00